sensor_id;sensor_type;location;lat;lon;timestamp;P1;durP1;ratioP1;P2;durP2;ratioP2
69126;SDS011;56688;50.234;19.292;2023-07-29T00:01:32;3.60;;;2.90;;
69126;SDS011;56688;50.234;19.292;2023-07-29T00:04:01;2.70;;;2.50;;
69126;SDS011;56688;50.234;19.292;2023-07-29T00:06:28;4.60;;;2.50;;
69126;SDS011;56688;50.234;19.292;2023-07-29T00:08:55;4.20;;;2.60;;
69126;SDS011;56688;50.234;19.292;2023-07-29T00:11:22;4.60;;;2.90;;
69126;SDS011;56688;50.234;19.292;2023-07-29T00:13:48;6.10;;;3.40;;
69126;SDS011;56688;50.234;19.292;2023-07-29T00:16:16;3.90;;;2.90;;
69126;SDS011;56688;50.234;19.292;2023-07-29T00:18:44;6.00;;;3.30;;
69126;SDS011;56688;50.234;19.292;2023-07-29T00:21:11;5.10;;;2.80;;
69126;SDS011;56688;50.234;19.292;2023-07-29T00:23:38;4.70;;;2.80;;
69126;SDS011;56688;50.234;19.292;2023-07-29T00:26:05;4.00;;;2.80;;
69126;SDS011;56688;50.234;19.292;2023-07-29T00:28:32;3.80;;;2.90;;
69126;SDS011;56688;50.234;19.292;2023-07-29T00:30:59;5.40;;;2.70;;
69126;SDS011;56688;50.234;19.292;2023-07-29T00:33:26;4.80;;;3.00;;
69126;SDS011;56688;50.234;19.292;2023-07-29T00:35:53;10.60;;;3.70;;
69126;SDS011;56688;50.234;19.292;2023-07-29T00:38:20;4.30;;;3.40;;
69126;SDS011;56688;50.234;19.292;2023-07-29T00:40:47;7.80;;;3.50;;
69126;SDS011;56688;50.234;19.292;2023-07-29T00:43:14;5.30;;;2.90;;
69126;SDS011;56688;50.234;19.292;2023-07-29T00:45:41;8.50;;;3.30;;
69126;SDS011;56688;50.234;19.292;2023-07-29T00:48:12;3.30;;;2.90;;
69126;SDS011;56688;50.234;19.292;2023-07-29T00:50:40;4.50;;;3.20;;
69126;SDS011;56688;50.234;19.292;2023-07-29T00:53:07;7.40;;;3.00;;
69126;SDS011;56688;50.234;19.292;2023-07-29T00:55:34;5.00;;;2.80;;
69126;SDS011;56688;50.234;19.292;2023-07-29T00:58:01;4.10;;;3.00;;
69126;SDS011;56688;50.234;19.292;2023-07-29T01:00:32;5.40;;;3.70;;
69126;SDS011;56688;50.234;19.292;2023-07-29T01:02:59;4.40;;;3.20;;
69126;SDS011;56688;50.234;19.292;2023-07-29T01:05:27;6.20;;;3.20;;
69126;SDS011;56688;50.234;19.292;2023-07-29T01:08:05;3.80;;;2.90;;
69126;SDS011;56688;50.234;19.292;2023-07-29T01:10:51;4.70;;;2.90;;
69126;SDS011;56688;50.234;19.292;2023-07-29T01:13:31;3.80;;;3.00;;
69126;SDS011;56688;50.234;19.292;2023-07-29T01:16:10;4.90;;;3.40;;
69126;SDS011;56688;50.234;19.292;2023-07-29T01:18:43;5.50;;;3.80;;
69126;SDS011;56688;50.234;19.292;2023-07-29T01:21:14;6.50;;;3.40;;
69126;SDS011;56688;50.234;19.292;2023-07-29T01:23:44;7.70;;;3.20;;
69126;SDS011;56688;50.234;19.292;2023-07-29T01:26:11;4.80;;;3.20;;
69126;SDS011;56688;50.234;19.292;2023-07-29T01:28:39;5.70;;;3.60;;
69126;SDS011;56688;50.234;19.292;2023-07-29T01:31:09;5.20;;;3.40;;
69126;SDS011;56688;50.234;19.292;2023-07-29T01:33:45;5.20;;;3.10;;
69126;SDS011;56688;50.234;19.292;2023-07-29T01:36:20;4.90;;;3.40;;
69126;SDS011;56688;50.234;19.292;2023-07-29T01:38:49;5.30;;;3.30;;
69126;SDS011;56688;50.234;19.292;2023-07-29T01:41:19;4.90;;;3.50;;
69126;SDS011;56688;50.234;19.292;2023-07-29T01:43:47;8.60;;;3.20;;
69126;SDS011;56688;50.234;19.292;2023-07-29T01:46:15;4.90;;;3.30;;
69126;SDS011;56688;50.234;19.292;2023-07-29T01:48:42;5.20;;;3.40;;
69126;SDS011;56688;50.234;19.292;2023-07-29T01:51:13;4.70;;;3.30;;
69126;SDS011;56688;50.234;19.292;2023-07-29T01:53:41;5.70;;;3.10;;
69126;SDS011;56688;50.234;19.292;2023-07-29T01:56:08;5.60;;;2.90;;
69126;SDS011;56688;50.234;19.292;2023-07-29T01:58:38;3.60;;;2.80;;
69126;SDS011;56688;50.234;19.292;2023-07-29T02:01:05;4.70;;;2.80;;
69126;SDS011;56688;50.234;19.292;2023-07-29T02:03:32;5.70;;;2.70;;
69126;SDS011;56688;50.234;19.292;2023-07-29T02:05:59;4.20;;;3.00;;
69126;SDS011;56688;50.234;19.292;2023-07-29T02:08:26;3.90;;;2.70;;
69126;SDS011;56688;50.234;19.292;2023-07-29T02:10:53;7.20;;;3.40;;
69126;SDS011;56688;50.234;19.292;2023-07-29T02:13:20;5.40;;;2.90;;
69126;SDS011;56688;50.234;19.292;2023-07-29T02:15:47;4.50;;;3.20;;
69126;SDS011;56688;50.234;19.292;2023-07-29T02:18:14;3.50;;;3.00;;
69126;SDS011;56688;50.234;19.292;2023-07-29T02:20:41;7.10;;;3.40;;
69126;SDS011;56688;50.234;19.292;2023-07-29T02:23:16;3.70;;;2.80;;
69126;SDS011;56688;50.234;19.292;2023-07-29T02:25:44;7.20;;;2.70;;
69126;SDS011;56688;50.234;19.292;2023-07-29T02:28:11;3.90;;;2.60;;
69126;SDS011;56688;50.234;19.292;2023-07-29T02:30:40;3.90;;;2.70;;
69126;SDS011;56688;50.234;19.292;2023-07-29T02:33:08;5.10;;;2.80;;
69126;SDS011;56688;50.234;19.292;2023-07-29T02:35:35;6.10;;;3.30;;
69126;SDS011;56688;50.234;19.292;2023-07-29T02:38:02;6.90;;;3.80;;
69126;SDS011;56688;50.234;19.292;2023-07-29T02:40:29;6.80;;;3.70;;
69126;SDS011;56688;50.234;19.292;2023-07-29T02:42:57;7.50;;;4.20;;
69126;SDS011;56688;50.234;19.292;2023-07-29T02:45:24;7.30;;;4.40;;
69126;SDS011;56688;50.234;19.292;2023-07-29T02:47:51;5.70;;;3.80;;
69126;SDS011;56688;50.234;19.292;2023-07-29T02:50:18;7.40;;;4.30;;
69126;SDS011;56688;50.234;19.292;2023-07-29T02:52:45;5.10;;;3.60;;
69126;SDS011;56688;50.234;19.292;2023-07-29T02:55:15;6.20;;;3.60;;
69126;SDS011;56688;50.234;19.292;2023-07-29T02:57:42;4.20;;;3.30;;
69126;SDS011;56688;50.234;19.292;2023-07-29T03:00:10;7.10;;;3.40;;
69126;SDS011;56688;50.234;19.292;2023-07-29T03:02:37;8.30;;;3.50;;
69126;SDS011;56688;50.234;19.292;2023-07-29T03:05:04;3.90;;;3.30;;
69126;SDS011;56688;50.234;19.292;2023-07-29T03:07:32;5.60;;;3.50;;
69126;SDS011;56688;50.234;19.292;2023-07-29T03:09:59;5.20;;;3.40;;
69126;SDS011;56688;50.234;19.292;2023-07-29T03:12:27;5.10;;;3.40;;
69126;SDS011;56688;50.234;19.292;2023-07-29T03:14:54;5.80;;;3.40;;
69126;SDS011;56688;50.234;19.292;2023-07-29T03:17:22;4.40;;;3.30;;
69126;SDS011;56688;50.234;19.292;2023-07-29T03:19:49;5.70;;;3.60;;
69126;SDS011;56688;50.234;19.292;2023-07-29T03:22:16;6.50;;;3.20;;
69126;SDS011;56688;50.234;19.292;2023-07-29T03:24:43;8.20;;;3.40;;
69126;SDS011;56688;50.234;19.292;2023-07-29T03:27:10;4.10;;;3.00;;
69126;SDS011;56688;50.234;19.292;2023-07-29T03:29:37;6.80;;;4.10;;
69126;SDS011;56688;50.234;19.292;2023-07-29T03:32:04;5.80;;;3.80;;
69126;SDS011;56688;50.234;19.292;2023-07-29T03:34:31;6.60;;;3.90;;
69126;SDS011;56688;50.234;19.292;2023-07-29T03:36:59;7.50;;;3.80;;
69126;SDS011;56688;50.234;19.292;2023-07-29T03:39:27;9.30;;;4.30;;
69126;SDS011;56688;50.234;19.292;2023-07-29T03:41:54;6.30;;;3.90;;
69126;SDS011;56688;50.234;19.292;2023-07-29T03:44:21;8.60;;;3.80;;
69126;SDS011;56688;50.234;19.292;2023-07-29T03:46:48;4.60;;;3.60;;
69126;SDS011;56688;50.234;19.292;2023-07-29T03:49:15;5.50;;;3.70;;
69126;SDS011;56688;50.234;19.292;2023-07-29T03:51:42;5.80;;;3.90;;
69126;SDS011;56688;50.234;19.292;2023-07-29T03:54:09;7.70;;;4.50;;
69126;SDS011;56688;50.234;19.292;2023-07-29T03:56:36;6.10;;;4.50;;
69126;SDS011;56688;50.234;19.292;2023-07-29T03:59:06;5.80;;;4.10;;
69126;SDS011;56688;50.234;19.292;2023-07-29T04:01:33;6.20;;;4.10;;
69126;SDS011;56688;50.234;19.292;2023-07-29T04:04:00;5.10;;;3.70;;
69126;SDS011;56688;50.234;19.292;2023-07-29T04:06:27;4.70;;;3.50;;
69126;SDS011;56688;50.234;19.292;2023-07-29T04:08:54;6.40;;;3.90;;
69126;SDS011;56688;50.234;19.292;2023-07-29T04:11:23;7.30;;;3.60;;
69126;SDS011;56688;50.234;19.292;2023-07-29T04:13:50;5.10;;;3.90;;
69126;SDS011;56688;50.234;19.292;2023-07-29T04:16:17;5.80;;;3.90;;
69126;SDS011;56688;50.234;19.292;2023-07-29T04:18:45;6.30;;;3.80;;
69126;SDS011;56688;50.234;19.292;2023-07-29T04:21:12;5.30;;;3.90;;
69126;SDS011;56688;50.234;19.292;2023-07-29T04:23:39;6.00;;;3.60;;
69126;SDS011;56688;50.234;19.292;2023-07-29T04:26:06;6.80;;;4.10;;
69126;SDS011;56688;50.234;19.292;2023-07-29T04:28:33;5.80;;;4.00;;
69126;SDS011;56688;50.234;19.292;2023-07-29T04:31:00;5.10;;;3.70;;
69126;SDS011;56688;50.234;19.292;2023-07-29T04:33:29;6.40;;;3.70;;
69126;SDS011;56688;50.234;19.292;2023-07-29T04:36:00;6.20;;;4.50;;
69126;SDS011;56688;50.234;19.292;2023-07-29T04:38:30;6.40;;;4.80;;
69126;SDS011;56688;50.234;19.292;2023-07-29T04:40:59;6.00;;;4.40;;
69126;SDS011;56688;50.234;19.292;2023-07-29T04:43:30;6.20;;;4.30;;
69126;SDS011;56688;50.234;19.292;2023-07-29T04:45:58;6.70;;;4.50;;
69126;SDS011;56688;50.234;19.292;2023-07-29T04:48:26;6.10;;;5.20;;
69126;SDS011;56688;50.234;19.292;2023-07-29T04:50:53;6.50;;;5.20;;
69126;SDS011;56688;50.234;19.292;2023-07-29T04:53:20;9.40;;;5.00;;
69126;SDS011;56688;50.234;19.292;2023-07-29T04:55:47;6.90;;;4.90;;
69126;SDS011;56688;50.234;19.292;2023-07-29T04:58:14;6.80;;;5.40;;
69126;SDS011;56688;50.234;19.292;2023-07-29T05:00:42;8.70;;;7.20;;
69126;SDS011;56688;50.234;19.292;2023-07-29T05:03:09;10.60;;;8.70;;
69126;SDS011;56688;50.234;19.292;2023-07-29T05:05:36;10.00;;;7.70;;
69126;SDS011;56688;50.234;19.292;2023-07-29T05:08:03;14.60;;;7.70;;
69126;SDS011;56688;50.234;19.292;2023-07-29T05:10:30;11.60;;;7.70;;
69126;SDS011;56688;50.234;19.292;2023-07-29T05:12:57;9.20;;;6.10;;
69126;SDS011;56688;50.234;19.292;2023-07-29T05:15:25;8.00;;;5.10;;
69126;SDS011;56688;50.234;19.292;2023-07-29T05:17:51;6.90;;;4.90;;
69126;SDS011;56688;50.234;19.292;2023-07-29T05:20:19;8.70;;;3.80;;
69126;SDS011;56688;50.234;19.292;2023-07-29T05:22:45;6.60;;;4.30;;
69126;SDS011;56688;50.234;19.292;2023-07-29T05:25:12;6.50;;;4.00;;
69126;SDS011;56688;50.234;19.292;2023-07-29T05:27:39;7.90;;;3.70;;
69126;SDS011;56688;50.234;19.292;2023-07-29T05:30:07;7.50;;;4.90;;
69126;SDS011;56688;50.234;19.292;2023-07-29T05:32:35;9.70;;;5.60;;
69126;SDS011;56688;50.234;19.292;2023-07-29T05:35:02;9.00;;;5.00;;
69126;SDS011;56688;50.234;19.292;2023-07-29T05:37:30;6.30;;;4.20;;
69126;SDS011;56688;50.234;19.292;2023-07-29T05:39:57;10.10;;;3.80;;
69126;SDS011;56688;50.234;19.292;2023-07-29T05:42:24;6.40;;;3.00;;
69126;SDS011;56688;50.234;19.292;2023-07-29T05:44:51;11.60;;;4.30;;
69126;SDS011;56688;50.234;19.292;2023-07-29T05:47:19;7.60;;;4.00;;
69126;SDS011;56688;50.234;19.292;2023-07-29T05:49:46;7.80;;;3.70;;
69126;SDS011;56688;50.234;19.292;2023-07-29T05:52:13;7.40;;;5.00;;
69126;SDS011;56688;50.234;19.292;2023-07-29T05:54:41;9.20;;;4.90;;
69126;SDS011;56688;50.234;19.292;2023-07-29T05:57:10;9.70;;;6.00;;
69126;SDS011;56688;50.234;19.292;2023-07-29T05:59:38;9.40;;;5.80;;
69126;SDS011;56688;50.234;19.292;2023-07-29T06:02:05;9.10;;;5.30;;
69126;SDS011;56688;50.234;19.292;2023-07-29T06:04:33;7.90;;;5.30;;
69126;SDS011;56688;50.234;19.292;2023-07-29T06:07:01;11.30;;;5.60;;
69126;SDS011;56688;50.234;19.292;2023-07-29T06:09:28;8.80;;;4.70;;
69126;SDS011;56688;50.234;19.292;2023-07-29T06:11:55;9.40;;;4.10;;
69126;SDS011;56688;50.234;19.292;2023-07-29T06:14:22;8.20;;;3.80;;
69126;SDS011;56688;50.234;19.292;2023-07-29T06:16:49;7.20;;;3.70;;
69126;SDS011;56688;50.234;19.292;2023-07-29T06:19:16;6.30;;;3.30;;
69126;SDS011;56688;50.234;19.292;2023-07-29T06:21:43;7.70;;;3.50;;
69126;SDS011;56688;50.234;19.292;2023-07-29T06:24:10;7.20;;;4.20;;
69126;SDS011;56688;50.234;19.292;2023-07-29T06:26:37;10.00;;;5.50;;
69126;SDS011;56688;50.234;19.292;2023-07-29T06:29:04;8.10;;;5.30;;
69126;SDS011;56688;50.234;19.292;2023-07-29T06:31:31;7.90;;;5.40;;
69126;SDS011;56688;50.234;19.292;2023-07-29T06:33:59;8.40;;;5.20;;
69126;SDS011;56688;50.234;19.292;2023-07-29T06:36:26;8.10;;;5.20;;
69126;SDS011;56688;50.234;19.292;2023-07-29T06:38:53;9.10;;;5.40;;
69126;SDS011;56688;50.234;19.292;2023-07-29T06:41:20;9.80;;;4.90;;
69126;SDS011;56688;50.234;19.292;2023-07-29T06:43:48;6.40;;;4.60;;
69126;SDS011;56688;50.234;19.292;2023-07-29T06:46:15;6.70;;;4.30;;
69126;SDS011;56688;50.234;19.292;2023-07-29T06:48:42;6.40;;;4.00;;
69126;SDS011;56688;50.234;19.292;2023-07-29T06:51:09;6.30;;;3.30;;
69126;SDS011;56688;50.234;19.292;2023-07-29T06:53:36;5.90;;;3.90;;
69126;SDS011;56688;50.234;19.292;2023-07-29T06:56:03;6.10;;;3.40;;
69126;SDS011;56688;50.234;19.292;2023-07-29T06:58:31;8.10;;;3.60;;
69126;SDS011;56688;50.234;19.292;2023-07-29T07:00:58;6.30;;;3.70;;
69126;SDS011;56688;50.234;19.292;2023-07-29T07:03:25;7.50;;;4.20;;
69126;SDS011;56688;50.234;19.292;2023-07-29T07:05:52;9.20;;;3.90;;
69126;SDS011;56688;50.234;19.292;2023-07-29T07:08:19;7.40;;;4.00;;
69126;SDS011;56688;50.234;19.292;2023-07-29T07:10:46;8.10;;;3.80;;
69126;SDS011;56688;50.234;19.292;2023-07-29T07:13:14;6.10;;;3.40;;
69126;SDS011;56688;50.234;19.292;2023-07-29T07:15:41;7.90;;;3.30;;
69126;SDS011;56688;50.234;19.292;2023-07-29T07:18:08;6.70;;;3.80;;
69126;SDS011;56688;50.234;19.292;2023-07-29T07:20:36;5.00;;;2.60;;
69126;SDS011;56688;50.234;19.292;2023-07-29T07:23:03;8.20;;;3.40;;
69126;SDS011;56688;50.234;19.292;2023-07-29T07:25:32;8.10;;;3.20;;
69126;SDS011;56688;50.234;19.292;2023-07-29T07:27:58;8.60;;;3.60;;
69126;SDS011;56688;50.234;19.292;2023-07-29T07:30:25;8.40;;;3.80;;
69126;SDS011;56688;50.234;19.292;2023-07-29T07:32:52;6.20;;;2.80;;
69126;SDS011;56688;50.234;19.292;2023-07-29T07:35:20;5.60;;;2.40;;
69126;SDS011;56688;50.234;19.292;2023-07-29T07:37:47;8.10;;;2.60;;
69126;SDS011;56688;50.234;19.292;2023-07-29T07:40:14;4.00;;;2.40;;
69126;SDS011;56688;50.234;19.292;2023-07-29T07:42:41;6.10;;;2.40;;
69126;SDS011;56688;50.234;19.292;2023-07-29T07:45:08;4.90;;;3.00;;
69126;SDS011;56688;50.234;19.292;2023-07-29T07:47:35;6.00;;;2.80;;
69126;SDS011;56688;50.234;19.292;2023-07-29T07:50:02;3.30;;;2.20;;
69126;SDS011;56688;50.234;19.292;2023-07-29T07:52:29;2.90;;;2.10;;
69126;SDS011;56688;50.234;19.292;2023-07-29T07:54:56;5.90;;;2.50;;
69126;SDS011;56688;50.234;19.292;2023-07-29T07:57:23;2.90;;;2.00;;
69126;SDS011;56688;50.234;19.292;2023-07-29T07:59:50;2.50;;;1.80;;
69126;SDS011;56688;50.234;19.292;2023-07-29T08:02:19;4.80;;;2.30;;
69126;SDS011;56688;50.234;19.292;2023-07-29T08:04:47;5.00;;;1.70;;
69126;SDS011;56688;50.234;19.292;2023-07-29T08:07:14;5.20;;;2.20;;
69126;SDS011;56688;50.234;19.292;2023-07-29T08:09:41;4.50;;;2.30;;
69126;SDS011;56688;50.234;19.292;2023-07-29T08:12:08;2.70;;;1.80;;
69126;SDS011;56688;50.234;19.292;2023-07-29T08:14:35;4.00;;;2.20;;
69126;SDS011;56688;50.234;19.292;2023-07-29T08:17:02;4.40;;;2.20;;
69126;SDS011;56688;50.234;19.292;2023-07-29T08:19:31;4.00;;;2.00;;
69126;SDS011;56688;50.234;19.292;2023-07-29T08:21:58;2.90;;;1.90;;
69126;SDS011;56688;50.234;19.292;2023-07-29T08:24:25;2.90;;;2.00;;
69126;SDS011;56688;50.234;19.292;2023-07-29T08:26:52;4.70;;;1.60;;
69126;SDS011;56688;50.234;19.292;2023-07-29T08:29:18;3.80;;;1.70;;
69126;SDS011;56688;50.234;19.292;2023-07-29T08:31:45;3.70;;;1.80;;
69126;SDS011;56688;50.234;19.292;2023-07-29T08:34:12;3.00;;;1.60;;
69126;SDS011;56688;50.234;19.292;2023-07-29T08:36:39;3.80;;;2.10;;
69126;SDS011;56688;50.234;19.292;2023-07-29T08:39:06;2.70;;;1.50;;
69126;SDS011;56688;50.234;19.292;2023-07-29T08:41:37;2.50;;;1.50;;
69126;SDS011;56688;50.234;19.292;2023-07-29T08:44:16;1.50;;;1.20;;
69126;SDS011;56688;50.234;19.292;2023-07-29T08:46:47;1.90;;;1.40;;
69126;SDS011;56688;50.234;19.292;2023-07-29T08:49:15;3.00;;;1.40;;
69126;SDS011;56688;50.234;19.292;2023-07-29T08:51:46;5.00;;;1.20;;
69126;SDS011;56688;50.234;19.292;2023-07-29T08:54:15;1.60;;;1.20;;
69126;SDS011;56688;50.234;19.292;2023-07-29T08:56:42;2.50;;;1.30;;
69126;SDS011;56688;50.234;19.292;2023-07-29T08:59:09;1.70;;;1.30;;
69126;SDS011;56688;50.234;19.292;2023-07-29T09:01:38;2.90;;;1.50;;
69126;SDS011;56688;50.234;19.292;2023-07-29T09:04:05;1.40;;;1.20;;
69126;SDS011;56688;50.234;19.292;2023-07-29T09:06:32;1.90;;;1.30;;
69126;SDS011;56688;50.234;19.292;2023-07-29T09:09:01;1.70;;;1.40;;
69126;SDS011;56688;50.234;19.292;2023-07-29T09:11:29;1.60;;;1.30;;
69126;SDS011;56688;50.234;19.292;2023-07-29T09:13:56;2.90;;;1.70;;
69126;SDS011;56688;50.234;19.292;2023-07-29T09:16:23;2.40;;;1.60;;
69126;SDS011;56688;50.234;19.292;2023-07-29T09:18:51;2.60;;;1.50;;
69126;SDS011;56688;50.234;19.292;2023-07-29T09:21:26;2.20;;;1.50;;
69126;SDS011;56688;50.234;19.292;2023-07-29T09:23:55;1.80;;;1.30;;
69126;SDS011;56688;50.234;19.292;2023-07-29T09:26:23;2.80;;;1.50;;
69126;SDS011;56688;50.234;19.292;2023-07-29T09:28:52;3.00;;;1.40;;
69126;SDS011;56688;50.234;19.292;2023-07-29T09:31:21;2.70;;;1.40;;
69126;SDS011;56688;50.234;19.292;2023-07-29T09:33:49;2.00;;;1.60;;
69126;SDS011;56688;50.234;19.292;2023-07-29T09:36:21;4.10;;;1.40;;
69126;SDS011;56688;50.234;19.292;2023-07-29T09:38:51;2.70;;;1.40;;
69126;SDS011;56688;50.234;19.292;2023-07-29T09:41:19;2.50;;;1.50;;
69126;SDS011;56688;50.234;19.292;2023-07-29T09:43:51;2.20;;;1.50;;
69126;SDS011;56688;50.234;19.292;2023-07-29T09:46:23;3.30;;;1.40;;
69126;SDS011;56688;50.234;19.292;2023-07-29T09:48:53;2.40;;;1.60;;
69126;SDS011;56688;50.234;19.292;2023-07-29T09:51:22;4.40;;;1.80;;
69126;SDS011;56688;50.234;19.292;2023-07-29T09:53:51;1.60;;;1.50;;
69126;SDS011;56688;50.234;19.292;2023-07-29T09:56:23;2.70;;;1.50;;
69126;SDS011;56688;50.234;19.292;2023-07-29T09:58:55;1.70;;;1.60;;
69126;SDS011;56688;50.234;19.292;2023-07-29T10:01:23;1.70;;;1.40;;
69126;SDS011;56688;50.234;19.292;2023-07-29T10:03:51;1.80;;;1.60;;
69126;SDS011;56688;50.234;19.292;2023-07-29T10:06:19;2.20;;;1.40;;
69126;SDS011;56688;50.234;19.292;2023-07-29T10:08:46;1.80;;;1.50;;
69126;SDS011;56688;50.234;19.292;2023-07-29T10:11:14;3.00;;;1.50;;
69126;SDS011;56688;50.234;19.292;2023-07-29T10:13:42;4.10;;;1.70;;
69126;SDS011;56688;50.234;19.292;2023-07-29T10:16:22;2.40;;;1.60;;
69126;SDS011;56688;50.234;19.292;2023-07-29T10:18:51;3.20;;;1.30;;
69126;SDS011;56688;50.234;19.292;2023-07-29T10:21:20;2.40;;;1.40;;
69126;SDS011;56688;50.234;19.292;2023-07-29T10:23:49;2.20;;;1.30;;
69126;SDS011;56688;50.234;19.292;2023-07-29T10:26:20;2.20;;;1.30;;
69126;SDS011;56688;50.234;19.292;2023-07-29T10:28:47;1.30;;;1.20;;
69126;SDS011;56688;50.234;19.292;2023-07-29T10:31:19;2.40;;;1.60;;
69126;SDS011;56688;50.234;19.292;2023-07-29T10:33:49;1.80;;;1.20;;
69126;SDS011;56688;50.234;19.292;2023-07-29T10:36:16;2.40;;;1.20;;
69126;SDS011;56688;50.234;19.292;2023-07-29T10:38:46;2.40;;;1.20;;
69126;SDS011;56688;50.234;19.292;2023-07-29T10:41:13;3.50;;;1.30;;
69126;SDS011;56688;50.234;19.292;2023-07-29T10:43:40;1.40;;;1.30;;
69126;SDS011;56688;50.234;19.292;2023-07-29T10:54:08;1.50;;;1.40;;
69126;SDS011;56688;50.234;19.292;2023-07-29T10:56:40;1.80;;;1.60;;
69126;SDS011;56688;50.234;19.292;2023-07-29T11:01:42;3.80;;;1.50;;
69126;SDS011;56688;50.234;19.292;2023-07-29T11:17:43;2.10;;;1.30;;
69126;SDS011;56688;50.234;19.292;2023-07-29T11:20:12;2.90;;;1.50;;
69126;SDS011;56688;50.234;19.292;2023-07-29T11:22:40;2.70;;;1.50;;
69126;SDS011;56688;50.234;19.292;2023-07-29T11:25:09;1.40;;;1.30;;
69126;SDS011;56688;50.234;19.292;2023-07-29T11:27:38;2.00;;;1.50;;
69126;SDS011;56688;50.234;19.292;2023-07-29T11:30:07;2.00;;;1.60;;
69126;SDS011;56688;50.234;19.292;2023-07-29T11:32:36;3.80;;;1.50;;
69126;SDS011;56688;50.234;19.292;2023-07-29T11:35:05;2.20;;;1.50;;
69126;SDS011;56688;50.234;19.292;2023-07-29T11:37:34;3.90;;;1.50;;
69126;SDS011;56688;50.234;19.292;2023-07-29T11:40:02;2.20;;;1.30;;
69126;SDS011;56688;50.234;19.292;2023-07-29T11:42:32;1.50;;;1.40;;
69126;SDS011;56688;50.234;19.292;2023-07-29T11:45:01;2.60;;;1.40;;
69126;SDS011;56688;50.234;19.292;2023-07-29T11:47:30;1.80;;;1.60;;
69126;SDS011;56688;50.234;19.292;2023-07-29T11:49:58;1.60;;;1.50;;
69126;SDS011;56688;50.234;19.292;2023-07-29T11:52:27;1.90;;;1.60;;
69126;SDS011;56688;50.234;19.292;2023-07-29T11:54:54;3.10;;;1.30;;
69126;SDS011;56688;50.234;19.292;2023-07-29T11:57:22;1.60;;;1.40;;
69126;SDS011;56688;50.234;19.292;2023-07-29T11:59:50;1.80;;;1.40;;
69126;SDS011;56688;50.234;19.292;2023-07-29T12:02:17;1.50;;;1.40;;
69126;SDS011;56688;50.234;19.292;2023-07-29T12:04:47;1.40;;;1.30;;
69126;SDS011;56688;50.234;19.292;2023-07-29T12:07:16;2.40;;;1.30;;
69126;SDS011;56688;50.234;19.292;2023-07-29T12:09:43;2.90;;;1.40;;
69126;SDS011;56688;50.234;19.292;2023-07-29T12:12:12;3.00;;;1.50;;
69126;SDS011;56688;50.234;19.292;2023-07-29T12:14:43;2.00;;;1.20;;
69126;SDS011;56688;50.234;19.292;2023-07-29T12:19:41;0.90;;;0.90;;
69126;SDS011;56688;50.234;19.292;2023-07-29T12:22:09;1.50;;;0.90;;
69126;SDS011;56688;50.234;19.292;2023-07-29T12:24:37;3.60;;;1.10;;
69126;SDS011;56688;50.234;19.292;2023-07-29T12:27:11;1.20;;;1.10;;
69126;SDS011;56688;50.234;19.292;2023-07-29T12:29:40;2.00;;;1.10;;
69126;SDS011;56688;50.234;19.292;2023-07-29T12:32:08;1.20;;;1.20;;
69126;SDS011;56688;50.234;19.292;2023-07-29T12:34:37;1.70;;;1.10;;
69126;SDS011;56688;50.234;19.292;2023-07-29T12:37:06;1.90;;;1.20;;
69126;SDS011;56688;50.234;19.292;2023-07-29T12:39:34;1.80;;;1.30;;
69126;SDS011;56688;50.234;19.292;2023-07-29T12:42:06;2.00;;;1.10;;
69126;SDS011;56688;50.234;19.292;2023-07-29T12:44:34;1.10;;;1.00;;
69126;SDS011;56688;50.234;19.292;2023-07-29T12:47:02;2.00;;;1.10;;
69126;SDS011;56688;50.234;19.292;2023-07-29T12:49:31;1.40;;;1.10;;
69126;SDS011;56688;50.234;19.292;2023-07-29T12:51:59;3.30;;;1.00;;
69126;SDS011;56688;50.234;19.292;2023-07-29T12:54:26;1.00;;;1.00;;
69126;SDS011;56688;50.234;19.292;2023-07-29T12:56:53;1.20;;;1.10;;
69126;SDS011;56688;50.234;19.292;2023-07-29T12:59:20;0.90;;;0.90;;
69126;SDS011;56688;50.234;19.292;2023-07-29T13:01:47;1.20;;;1.10;;
69126;SDS011;56688;50.234;19.292;2023-07-29T13:04:14;1.60;;;1.20;;
69126;SDS011;56688;50.234;19.292;2023-07-29T13:06:41;5.30;;;1.60;;
69126;SDS011;56688;50.234;19.292;2023-07-29T13:09:08;1.20;;;1.10;;
69126;SDS011;56688;50.234;19.292;2023-07-29T13:11:35;1.10;;;1.10;;
69126;SDS011;56688;50.234;19.292;2023-07-29T13:14:02;1.10;;;1.00;;
69126;SDS011;56688;50.234;19.292;2023-07-29T13:16:29;1.30;;;1.20;;
69126;SDS011;56688;50.234;19.292;2023-07-29T13:18:56;1.70;;;1.20;;
69126;SDS011;56688;50.234;19.292;2023-07-29T13:21:23;2.10;;;1.00;;
69126;SDS011;56688;50.234;19.292;2023-07-29T13:23:51;1.40;;;1.00;;
69126;SDS011;56688;50.234;19.292;2023-07-29T13:26:18;1.10;;;1.00;;
69126;SDS011;56688;50.234;19.292;2023-07-29T13:28:45;0.90;;;0.90;;
69126;SDS011;56688;50.234;19.292;2023-07-29T13:31:12;1.20;;;1.10;;
69126;SDS011;56688;50.234;19.292;2023-07-29T13:33:39;1.00;;;0.90;;
69126;SDS011;56688;50.234;19.292;2023-07-29T13:36:06;1.10;;;0.90;;
69126;SDS011;56688;50.234;19.292;2023-07-29T13:38:35;3.60;;;1.00;;
69126;SDS011;56688;50.234;19.292;2023-07-29T13:41:02;1.10;;;1.00;;
69126;SDS011;56688;50.234;19.292;2023-07-29T13:43:29;1.10;;;1.00;;
69126;SDS011;56688;50.234;19.292;2023-07-29T13:45:56;1.20;;;1.10;;
69126;SDS011;56688;50.234;19.292;2023-07-29T13:48:23;1.20;;;1.00;;
69126;SDS011;56688;50.234;19.292;2023-07-29T13:50:50;1.20;;;1.10;;
69126;SDS011;56688;50.234;19.292;2023-07-29T13:53:18;1.70;;;1.10;;
69126;SDS011;56688;50.234;19.292;2023-07-29T13:55:45;1.40;;;1.20;;
69126;SDS011;56688;50.234;19.292;2023-07-29T13:58:12;1.30;;;1.20;;
69126;SDS011;56688;50.234;19.292;2023-07-29T14:00:38;4.00;;;1.10;;
69126;SDS011;56688;50.234;19.292;2023-07-29T14:03:05;1.30;;;1.20;;
69126;SDS011;56688;50.234;19.292;2023-07-29T14:05:32;1.80;;;1.10;;
69126;SDS011;56688;50.234;19.292;2023-07-29T14:07:59;1.10;;;1.10;;
69126;SDS011;56688;50.234;19.292;2023-07-29T14:10:26;1.20;;;1.10;;
69126;SDS011;56688;50.234;19.292;2023-07-29T14:12:53;1.10;;;1.00;;
69126;SDS011;56688;50.234;19.292;2023-07-29T14:15:20;1.30;;;1.20;;
69126;SDS011;56688;50.234;19.292;2023-07-29T14:17:48;2.10;;;1.10;;
69126;SDS011;56688;50.234;19.292;2023-07-29T14:20:15;1.20;;;1.10;;
69126;SDS011;56688;50.234;19.292;2023-07-29T14:22:42;1.50;;;1.10;;
69126;SDS011;56688;50.234;19.292;2023-07-29T14:25:09;1.50;;;1.30;;
69126;SDS011;56688;50.234;19.292;2023-07-29T14:27:36;2.20;;;1.10;;
69126;SDS011;56688;50.234;19.292;2023-07-29T14:30:03;2.70;;;1.60;;
69126;SDS011;56688;50.234;19.292;2023-07-29T14:32:31;1.90;;;1.20;;
69126;SDS011;56688;50.234;19.292;2023-07-29T14:34:58;1.50;;;1.40;;
69126;SDS011;56688;50.234;19.292;2023-07-29T14:37:30;2.60;;;1.70;;
69126;SDS011;56688;50.234;19.292;2023-07-29T14:39:58;2.00;;;1.30;;
69126;SDS011;56688;50.234;19.292;2023-07-29T14:42:26;1.20;;;1.10;;
69126;SDS011;56688;50.234;19.292;2023-07-29T14:44:57;1.40;;;1.30;;
69126;SDS011;56688;50.234;19.292;2023-07-29T14:47:24;2.00;;;1.40;;
69126;SDS011;56688;50.234;19.292;2023-07-29T14:49:51;2.10;;;1.30;;
69126;SDS011;56688;50.234;19.292;2023-07-29T14:52:18;1.60;;;1.20;;
69126;SDS011;56688;50.234;19.292;2023-07-29T14:54:45;1.40;;;1.10;;
69126;SDS011;56688;50.234;19.292;2023-07-29T14:57:12;3.70;;;1.70;;
69126;SDS011;56688;50.234;19.292;2023-07-29T14:59:39;3.10;;;1.10;;
69126;SDS011;56688;50.234;19.292;2023-07-29T15:02:06;1.10;;;1.00;;
69126;SDS011;56688;50.234;19.292;2023-07-29T15:04:34;1.90;;;1.30;;